createdAt,value
2019-03-28T00:02:02.428Z,15.70
2019-03-28T00:04:29.684Z,17.10
2019-03-28T00:06:56.309Z,15.10
2019-03-28T00:09:23.087Z,14.73
2019-03-28T00:11:49.672Z,14.70
2019-03-28T00:14:16.437Z,13.90
2019-03-28T00:16:43.060Z,14.33
2019-03-28T00:19:10.314Z,13.47
2019-03-28T00:21:37.734Z,14.00
2019-03-28T00:24:07.591Z,13.47
2019-03-28T00:26:34.214Z,13.27
2019-03-28T00:29:02.290Z,13.63
2019-03-28T00:31:30.692Z,13.70
2019-03-28T00:33:57.812Z,13.80
2019-03-28T00:36:24.574Z,13.40
2019-03-28T00:38:51.101Z,12.67
2019-03-28T00:41:18.252Z,13.43
2019-03-28T00:43:44.987Z,12.90
2019-03-28T00:46:12.353Z,13.67
2019-03-28T00:48:39.409Z,14.20
2019-03-28T00:51:06.291Z,13.50
2019-03-28T00:53:33.517Z,14.30
2019-03-28T00:56:00.175Z,13.80
2019-03-28T00:58:28.408Z,13.80
2019-03-28T01:00:55.169Z,14.17
2019-03-28T01:03:23.391Z,14.00
2019-03-28T01:05:51.848Z,14.20
2019-03-28T01:08:20.173Z,14.60
2019-03-28T01:10:47.724Z,12.87
2019-03-28T01:13:14.344Z,14.47
2019-03-28T01:15:41.703Z,11.40
2019-03-28T01:18:08.344Z,12.67
2019-03-28T01:20:35.184Z,13.00
2019-03-28T01:23:03.427Z,13.20
2019-03-28T01:25:30.482Z,14.30
2019-03-28T01:27:57.807Z,12.63
2019-03-28T01:30:25.044Z,11.80
2019-03-28T01:32:51.707Z,12.63
2019-03-28T01:35:18.627Z,12.20
2019-03-28T01:37:46.079Z,12.60
2019-03-28T01:40:12.859Z,12.30
2019-03-28T01:42:39.509Z,12.80
2019-03-28T01:45:06.844Z,12.67
2019-03-28T01:47:33.541Z,13.97
2019-03-28T01:50:00.865Z,12.70
2019-03-28T01:52:27.615Z,13.33
2019-03-28T01:54:54.843Z,13.97
2019-03-28T01:57:22.736Z,17.03
2019-03-28T01:59:50.961Z,15.40
2019-03-28T02:02:20.176Z,15.50
2019-03-28T02:04:46.853Z,15.37
2019-03-28T02:07:14.303Z,17.20
2019-03-28T02:09:40.937Z,16.70
2019-03-28T02:12:07.596Z,17.37
2019-03-28T02:14:34.230Z,17.60
2019-03-28T02:17:01.394Z,17.50
2019-03-28T02:19:29.509Z,16.50
2019-03-28T02:21:56.558Z,19.00
2019-03-28T02:24:23.884Z,18.10
2019-03-28T02:27:23.085Z,17.53
2019-03-28T02:29:39.974Z,17.97
2019-03-28T02:32:08.385Z,19.00
2019-03-28T02:34:35.862Z,17.77
2019-03-28T02:37:03.436Z,18.67
2019-03-28T02:39:30.159Z,18.03
2019-03-28T02:41:57.612Z,18.30
2019-03-28T02:44:24.239Z,18.27
2019-03-28T02:46:50.921Z,19.37
2019-03-28T02:49:19.699Z,19.13
2019-03-28T02:51:48.323Z,18.83
2019-03-28T02:54:16.550Z,17.50
2019-03-28T02:56:44.816Z,18.27
2019-03-28T02:59:11.451Z,16.97
2019-03-28T03:01:38.793Z,17.93
2019-03-28T03:04:06.137Z,16.33
2019-03-28T03:06:34.352Z,17.00
2019-03-28T03:09:01.286Z,17.40
2019-03-28T03:11:27.828Z,17.70
2019-03-28T03:13:54.393Z,16.10
2019-03-28T03:16:20.993Z,16.97
2019-03-28T03:18:47.581Z,16.57
2019-03-28T03:21:14.164Z,18.60
2019-03-28T03:23:40.724Z,16.90
2019-03-28T03:26:07.244Z,16.03
2019-03-28T03:28:33.802Z,16.10
2019-03-28T03:31:00.440Z,17.13
2019-03-28T03:33:27.143Z,15.80
2019-03-28T03:35:53.828Z,16.23
2019-03-28T03:38:21.117Z,15.17
2019-03-28T03:40:48.348Z,16.37
2019-03-28T03:43:15.004Z,15.33
2019-03-28T03:45:41.532Z,15.97
2019-03-28T03:48:08.143Z,16.17
2019-03-28T03:50:34.788Z,17.00
2019-03-28T03:53:01.558Z,16.90
2019-03-28T03:55:28.092Z,16.47
2019-03-28T03:57:54.661Z,17.17
2019-03-28T04:00:30.060Z,16.13
2019-03-28T04:02:56.519Z,14.90
2019-03-28T04:05:23.042Z,17.23
2019-03-28T04:07:49.609Z,18.00
2019-03-28T04:10:16.247Z,18.87
2019-03-28T04:12:42.808Z,18.10
2019-03-28T04:15:09.715Z,18.77
2019-03-28T04:17:36.247Z,17.37
2019-03-28T04:20:05.362Z,17.80
2019-03-28T04:22:31.928Z,17.73
2019-03-28T04:24:58.558Z,18.30
2019-03-28T04:27:25.148Z,19.87
2019-03-28T04:29:51.657Z,19.50
2019-03-28T04:32:18.202Z,19.83
2019-03-28T04:34:44.771Z,20.10
2019-03-28T04:37:11.306Z,19.30
2019-03-28T04:39:37.858Z,19.77
2019-03-28T04:42:04.483Z,20.67
2019-03-28T04:44:31.061Z,22.87
2019-03-28T04:46:57.564Z,20.63
2019-03-28T04:49:24.172Z,19.20
2019-03-28T04:51:50.675Z,21.47
2019-03-28T04:54:17.233Z,21.97
2019-03-28T04:56:43.796Z,21.33
2019-03-28T04:59:10.435Z,19.77
2019-03-28T05:01:36.968Z,21.13
2019-03-28T05:04:03.572Z,19.80
2019-03-28T05:06:30.102Z,19.43
2019-03-28T05:08:56.669Z,18.87
2019-03-28T05:11:23.183Z,21.60
2019-03-28T05:13:49.751Z,20.50
2019-03-28T05:16:16.386Z,21.40
2019-03-28T05:18:42.963Z,20.60
2019-03-28T05:21:09.591Z,19.20
2019-03-28T05:23:36.253Z,19.20
2019-03-28T05:26:02.983Z,18.97
2019-03-28T05:28:31.251Z,18.97
2019-03-28T05:30:59.474Z,18.53
2019-03-28T05:33:26.138Z,18.63
2019-03-28T05:35:52.664Z,18.70
2019-03-28T05:38:19.245Z,18.13
2019-03-28T05:40:45.863Z,19.73
2019-03-28T05:43:12.796Z,17.73
2019-03-28T05:45:39.356Z,19.80
2019-03-28T05:48:06.216Z,18.90
2019-03-28T05:50:32.769Z,18.83
2019-03-28T05:52:59.296Z,19.80
2019-03-28T05:55:25.957Z,18.97
2019-03-28T05:57:52.473Z,18.50
2019-03-28T06:00:19.042Z,18.70
2019-03-28T06:02:45.572Z,17.97
2019-03-28T06:05:12.228Z,18.87
2019-03-28T06:07:38.762Z,19.33
2019-03-28T06:10:07.348Z,18.53
2019-03-28T06:12:33.881Z,19.00
2019-03-28T06:15:00.552Z,18.70
2019-03-28T06:17:27.072Z,18.07
2019-03-28T06:19:53.770Z,18.40
2019-03-28T06:22:20.289Z,19.27
2019-03-28T06:24:46.866Z,19.50
2019-03-28T06:27:13.505Z,18.80
2019-03-28T06:29:40.047Z,19.27
2019-03-28T06:32:07.267Z,19.03
2019-03-28T06:34:34.245Z,18.30
2019-03-28T06:37:01.762Z,17.93
2019-03-28T06:39:28.298Z,19.60
2019-03-28T06:41:54.836Z,18.77
2019-03-28T06:44:21.448Z,18.27
2019-03-28T06:46:47.972Z,19.20
2019-03-28T06:49:14.577Z,18.40
2019-03-28T06:51:41.202Z,17.23
2019-03-28T06:54:07.849Z,18.20
2019-03-28T06:56:35.070Z,19.13
2019-03-28T06:59:01.647Z,16.80
2019-03-28T07:01:28.255Z,18.00
2019-03-28T07:03:54.880Z,18.23
2019-03-28T07:06:21.444Z,17.93
2019-03-28T07:08:48.068Z,18.10
2019-03-28T07:11:14.624Z,17.30
2019-03-28T07:13:41.254Z,18.30
2019-03-28T07:16:07.829Z,18.80
2019-03-28T07:18:34.435Z,18.10
2019-03-28T07:21:01.097Z,16.43
2019-03-28T07:23:27.725Z,17.37
2019-03-28T07:25:54.530Z,16.10
2019-03-28T07:28:21.734Z,15.60
2019-03-28T07:30:48.420Z,16.10
2019-03-28T07:33:14.935Z,17.40
2019-03-28T07:35:43.202Z,16.27
2019-03-28T07:38:10.719Z,15.83
2019-03-28T07:40:37.685Z,16.73
2019-03-28T07:43:04.404Z,17.73
2019-03-28T07:45:34.089Z,16.63
2019-03-28T07:47:59.427Z,16.40
2019-03-28T07:50:26.077Z,16.93
2019-03-28T07:52:53.621Z,16.43
2019-03-28T07:55:20.259Z,17.30
2019-03-28T07:57:46.933Z,17.20
2019-03-28T08:00:13.896Z,17.27
2019-03-28T08:02:40.519Z,16.80
2019-03-28T08:05:09.549Z,19.97
2019-03-28T08:07:45.094Z,19.23
2019-03-28T08:10:06.387Z,18.27
2019-03-28T08:12:33.212Z,17.60
2019-03-28T08:14:59.735Z,17.60
2019-03-28T08:17:26.411Z,17.40
2019-03-28T08:19:52.953Z,17.27
2019-03-28T08:22:19.514Z,17.03
2019-03-28T08:24:46.345Z,18.03
2019-03-28T08:27:34.128Z,20.27
2019-03-28T08:30:00.591Z,17.03
2019-03-28T08:32:27.754Z,17.60
2019-03-28T08:34:54.269Z,17.67
2019-03-28T08:37:21.128Z,17.63
2019-03-28T08:39:47.642Z,17.53
2019-03-28T08:42:14.285Z,19.67
2019-03-28T08:44:40.816Z,19.10
2019-03-28T08:47:07.374Z,18.77
2019-03-28T08:49:33.930Z,18.20
2019-03-28T08:52:00.594Z,19.37
2019-03-28T08:54:27.429Z,18.07
2019-03-28T08:56:54.088Z,17.07
2019-03-28T08:59:20.610Z,17.50
2019-03-28T09:01:47.168Z,18.43
2019-03-28T09:04:13.689Z,18.20
2019-03-28T09:06:40.352Z,18.67
2019-03-28T09:09:08.678Z,17.07
2019-03-28T09:11:35.346Z,16.40
2019-03-28T09:14:01.955Z,18.33
2019-03-28T09:16:28.515Z,17.97
2019-03-28T09:18:55.134Z,16.20
2019-03-28T09:21:21.789Z,14.80
2019-03-28T09:23:48.824Z,15.87
2019-03-28T09:26:15.443Z,14.13
2019-03-28T09:28:42.104Z,14.87
2019-03-28T09:31:19.837Z,13.63
2019-03-28T09:33:40.687Z,15.07
2019-03-28T09:36:07.312Z,14.00
2019-03-28T09:38:33.869Z,14.00
2019-03-28T09:41:00.489Z,13.70
2019-03-28T09:43:27.054Z,13.60
2019-03-28T09:45:53.584Z,15.27
2019-03-28T09:48:20.268Z,13.30
2019-03-28T09:50:46.902Z,14.20
2019-03-28T09:53:13.448Z,14.07
2019-03-28T09:55:39.978Z,14.00
2019-03-28T09:58:06.552Z,13.60
2019-03-28T10:00:34.494Z,12.60
2019-03-28T10:03:01.135Z,14.83
2019-03-28T10:05:27.654Z,15.93
2019-03-28T10:07:54.421Z,14.73
2019-03-28T10:10:20.949Z,14.70
2019-03-28T10:12:47.612Z,15.43
2019-03-28T10:15:14.123Z,15.47
2019-03-28T10:17:42.483Z,13.60
2019-03-28T10:20:09.618Z,14.80
2019-03-28T10:22:37.233Z,13.97
2019-03-28T10:25:05.613Z,13.33
2019-03-28T10:27:32.132Z,13.87
2019-03-28T10:29:58.780Z,13.50
2019-03-28T10:32:25.312Z,13.13
2019-03-28T10:34:52.524Z,14.13
2019-03-28T10:37:19.090Z,13.53
2019-03-28T10:39:46.146Z,14.20
2019-03-28T10:42:12.777Z,14.50
2019-03-28T10:44:39.535Z,15.57
2019-03-28T10:47:06.467Z,15.30
2019-03-28T10:49:33.056Z,16.03
2019-03-28T10:51:59.579Z,16.07
2019-03-28T10:54:26.244Z,17.03
2019-03-28T10:56:57.220Z,16.50
2019-03-28T10:59:25.381Z,15.90
2019-03-28T11:01:50.859Z,15.53
2019-03-28T11:04:17.753Z,16.77
2019-03-28T11:06:44.285Z,16.63
2019-03-28T11:09:10.940Z,16.50
2019-03-28T11:11:37.462Z,15.90
2019-03-28T11:14:06.655Z,16.67
2019-03-28T11:16:33.183Z,16.93
2019-03-28T11:18:59.732Z,16.83
2019-03-28T11:21:26.359Z,15.53
2019-03-28T11:23:53.015Z,16.67
2019-03-28T11:26:19.649Z,17.13
2019-03-28T11:28:46.697Z,15.70
2019-03-28T11:31:13.227Z,14.73
2019-03-28T11:33:40.579Z,14.30
2019-03-28T11:36:07.405Z,14.17
2019-03-28T11:38:33.958Z,14.00
2019-03-28T11:41:00.483Z,13.33
2019-03-28T11:43:27.138Z,13.50
2019-03-28T11:45:53.674Z,13.33
2019-03-28T11:48:20.216Z,11.47
2019-03-28T11:50:46.878Z,11.43
2019-03-28T11:53:13.396Z,11.43
2019-03-28T11:55:40.044Z,9.80
2019-03-28T11:58:06.470Z,8.47
2019-03-28T12:00:33.728Z,9.30
2019-03-28T12:03:01.964Z,9.27
2019-03-28T12:05:28.623Z,9.57
2019-03-28T12:07:55.251Z,9.07
2019-03-28T12:10:21.894Z,9.97
2019-03-28T12:12:48.529Z,11.07
2019-03-28T12:15:15.301Z,10.90
2019-03-28T12:17:41.813Z,9.77
2019-03-28T12:20:09.008Z,11.03
2019-03-28T12:22:35.506Z,11.37
2019-03-28T12:25:04.988Z,10.37
2019-03-28T12:27:31.599Z,10.20
2019-03-28T12:29:58.278Z,11.00
2019-03-28T12:32:24.796Z,11.77
2019-03-28T12:34:51.362Z,10.07
2019-03-28T12:37:17.983Z,10.80
2019-03-28T12:39:44.655Z,12.33
2019-03-28T12:42:11.169Z,11.57
2019-03-28T12:44:37.823Z,11.00
2019-03-28T12:47:04.356Z,10.73
2019-03-28T12:49:30.944Z,12.00
2019-03-28T12:51:57.469Z,11.83
2019-03-28T12:54:25.024Z,11.67
2019-03-28T12:56:51.565Z,11.37
2019-03-28T12:59:18.221Z,12.47
2019-03-28T13:01:44.835Z,10.30
2019-03-28T13:04:11.453Z,11.90
2019-03-28T13:06:38.010Z,11.30
2019-03-28T13:09:07.354Z,10.77
2019-03-28T13:11:34.012Z,9.97
2019-03-28T13:14:00.542Z,10.00
2019-03-28T13:16:27.098Z,8.97
2019-03-28T13:18:53.629Z,10.00
2019-03-28T13:21:20.188Z,11.17
2019-03-28T13:23:46.611Z,10.40
2019-03-28T13:26:13.260Z,10.63
2019-03-28T13:28:39.972Z,11.67
2019-03-28T13:31:06.636Z,10.60
2019-03-28T13:33:33.148Z,11.50
2019-03-28T13:35:59.704Z,12.40
2019-03-28T13:38:26.232Z,12.20
2019-03-28T13:40:52.787Z,13.07
2019-03-28T13:43:19.312Z,12.50
2019-03-28T13:45:45.973Z,12.30
2019-03-28T13:48:13.907Z,12.80
2019-03-28T13:50:40.591Z,12.23
2019-03-28T13:53:07.116Z,12.90
2019-03-28T13:55:33.672Z,12.67
2019-03-28T13:58:00.340Z,12.77
2019-03-28T14:00:31.669Z,12.60
2019-03-28T14:02:59.108Z,13.23
2019-03-28T14:05:25.748Z,11.90
2019-03-28T14:07:52.386Z,11.53
2019-03-28T14:10:21.573Z,12.90
2019-03-28T14:12:47.455Z,11.10
2019-03-28T14:15:14.008Z,11.60
2019-03-28T14:17:40.540Z,11.30
2019-03-28T14:20:07.696Z,11.50
2019-03-28T14:22:36.228Z,11.10
2019-03-28T14:25:04.698Z,12.13
2019-03-28T14:27:31.228Z,11.23
2019-03-28T14:29:57.781Z,10.93
2019-03-28T14:32:25.309Z,10.47
2019-03-28T14:34:52.981Z,10.83
2019-03-28T14:37:19.609Z,11.27
2019-03-28T14:39:49.085Z,10.60
2019-03-28T14:42:14.669Z,11.77
2019-03-28T14:44:41.707Z,11.03
2019-03-28T14:47:08.261Z,12.27
2019-03-28T14:49:34.876Z,13.10
2019-03-28T14:52:02.184Z,11.70
2019-03-28T14:54:28.710Z,12.27
2019-03-28T14:56:55.675Z,11.93
2019-03-28T14:59:32.532Z,12.40
2019-03-28T15:01:51.068Z,12.00
2019-03-28T15:04:17.609Z,12.17
2019-03-28T15:06:44.161Z,12.00
2019-03-28T15:09:10.707Z,12.13
2019-03-28T15:11:37.264Z,11.60
2019-03-28T15:14:03.892Z,10.80
2019-03-28T15:16:30.543Z,10.70
2019-03-28T15:18:57.176Z,11.27
2019-03-28T15:21:23.960Z,10.00
2019-03-28T15:23:50.463Z,10.87
2019-03-28T15:26:16.933Z,10.60
2019-03-28T15:28:43.442Z,9.80
2019-03-28T15:31:09.983Z,9.50
2019-03-28T15:33:39.838Z,10.73
2019-03-28T15:36:04.984Z,9.20
2019-03-28T15:38:32.207Z,9.50
2019-03-28T15:40:58.758Z,10.17
2019-03-28T15:43:25.415Z,9.30
2019-03-28T15:45:51.969Z,10.63
2019-03-28T15:48:18.615Z,12.10
2019-03-28T15:50:45.664Z,11.23
2019-03-28T15:53:12.397Z,12.77
2019-03-28T15:55:38.967Z,12.50
2019-03-28T15:58:05.497Z,12.00
2019-03-28T16:00:32.120Z,12.80
2019-03-28T16:02:58.719Z,13.17
2019-03-28T16:05:25.202Z,12.77
2019-03-28T16:07:51.851Z,13.57
2019-03-28T16:10:18.810Z,12.97
2019-03-28T16:12:45.459Z,13.40
2019-03-28T16:15:13.782Z,12.60
2019-03-28T16:17:40.328Z,12.97
2019-03-28T16:20:07.256Z,12.97
2019-03-28T16:22:35.537Z,13.47
2019-03-28T16:25:03.948Z,12.43
2019-03-28T16:27:30.504Z,12.67
2019-03-28T16:29:57.053Z,12.20
2019-03-28T16:32:23.717Z,13.27
2019-03-28T16:34:51.141Z,12.93
2019-03-28T16:37:17.713Z,14.20
2019-03-28T16:39:44.237Z,14.90
2019-03-28T16:42:10.795Z,14.60
2019-03-28T16:44:37.319Z,15.90
2019-03-28T16:47:03.964Z,15.80
2019-03-28T16:49:30.576Z,16.30
2019-03-28T16:51:57.132Z,17.43
2019-03-28T16:54:23.665Z,16.80
2019-03-28T16:56:51.948Z,15.10
2019-03-28T16:59:18.448Z,15.97
2019-03-28T17:01:45.118Z,16.73
2019-03-28T17:04:20.599Z,17.30
2019-03-28T17:06:40.109Z,16.13
2019-03-28T17:09:06.737Z,16.50
2019-03-28T17:11:33.376Z,15.70
2019-03-28T17:14:00.055Z,16.27
2019-03-28T17:16:26.574Z,17.30
2019-03-28T17:18:53.144Z,17.20
2019-03-28T17:21:19.672Z,14.93
2019-03-28T17:23:46.343Z,17.90
2019-03-28T17:26:12.863Z,15.27
2019-03-28T17:28:39.537Z,17.07
2019-03-28T17:31:06.164Z,16.13
2019-03-28T17:33:32.723Z,16.10
2019-03-28T17:35:59.246Z,15.57
2019-03-28T17:38:25.920Z,15.10
2019-03-28T17:40:52.556Z,14.67
2019-03-28T17:43:19.700Z,15.57
2019-03-28T17:45:46.329Z,16.73
2019-03-28T17:48:12.997Z,14.87
2019-03-28T17:50:39.708Z,14.73
2019-03-28T17:53:07.049Z,14.40
2019-03-28T17:55:33.613Z,16.40
2019-03-28T17:58:00.200Z,14.40
2019-03-28T18:00:28.062Z,14.53
2019-03-28T18:03:08.055Z,16.00
2019-03-28T18:05:23.347Z,16.20
2019-03-28T18:07:49.838Z,15.83
2019-03-28T18:10:16.917Z,15.20
2019-03-28T18:12:43.945Z,15.07
2019-03-28T18:15:10.875Z,15.43
2019-03-28T18:17:37.803Z,14.70
2019-03-28T18:20:05.433Z,15.10
2019-03-28T18:22:32.207Z,15.50
2019-03-28T18:24:59.407Z,13.97
2019-03-28T18:27:26.100Z,14.27
2019-03-28T18:29:53.685Z,13.50
2019-03-28T18:32:20.332Z,12.60
2019-03-28T18:34:51.066Z,12.40
2019-03-28T18:37:15.874Z,12.70
2019-03-28T18:39:42.527Z,12.40
2019-03-28T18:42:09.153Z,11.90
2019-03-28T18:44:35.735Z,12.30
2019-03-28T18:47:02.357Z,11.50
2019-03-28T18:49:28.889Z,11.50
2019-03-28T18:51:55.446Z,10.60
2019-03-28T18:54:22.120Z,10.63
2019-03-28T18:56:48.719Z,10.87
2019-03-28T18:59:16.976Z,11.97
2019-03-28T19:01:43.638Z,12.80
2019-03-28T19:04:10.496Z,11.90
2019-03-28T19:06:37.158Z,11.03
2019-03-28T19:09:05.458Z,10.80
2019-03-28T19:11:32.792Z,10.47
2019-03-28T19:13:59.507Z,10.20
2019-03-28T19:16:26.174Z,10.83
2019-03-28T19:18:53.128Z,11.00
2019-03-28T19:21:19.960Z,11.30
2019-03-28T19:23:46.540Z,10.57
2019-03-28T19:26:13.831Z,10.23
2019-03-28T19:28:41.137Z,11.90
2019-03-28T19:31:08.667Z,11.70
2019-03-28T19:33:38.079Z,11.43
2019-03-28T19:36:04.520Z,12.30
2019-03-28T19:38:31.308Z,12.20
2019-03-28T19:40:58.106Z,11.70
2019-03-28T19:43:25.478Z,13.17
2019-03-28T19:45:52.153Z,11.63
2019-03-28T19:48:18.813Z,12.20
2019-03-28T19:50:46.060Z,12.07
2019-03-28T19:53:13.666Z,12.00
2019-03-28T19:55:40.358Z,11.33
2019-03-28T19:58:07.277Z,12.60
2019-03-28T20:00:33.902Z,12.47
2019-03-28T20:03:01.685Z,12.77
2019-03-28T20:05:28.924Z,12.20
2019-03-28T20:07:56.223Z,13.87
2019-03-28T20:10:22.797Z,14.83
2019-03-28T20:12:49.491Z,15.07
2019-03-28T20:15:16.335Z,14.53
2019-03-28T20:17:43.240Z,15.47
2019-03-28T20:20:10.842Z,16.23
2019-03-28T20:22:38.161Z,17.17
2019-03-28T20:25:07.039Z,16.10
2019-03-28T20:27:35.358Z,16.03
2019-03-28T20:30:05.699Z,17.37
2019-03-28T20:32:32.439Z,17.73
2019-03-28T20:34:59.266Z,17.70
2019-03-28T20:37:25.839Z,18.83
2019-03-28T20:39:52.413Z,18.30
2019-03-28T20:42:19.035Z,19.13
2019-03-28T20:44:45.813Z,18.10
2019-03-28T20:47:12.754Z,18.23
2019-03-28T20:49:39.959Z,19.73
2019-03-28T20:52:09.325Z,20.30
2019-03-28T20:54:35.564Z,21.00
2019-03-28T20:57:02.098Z,20.60
2019-03-28T20:59:28.945Z,21.07
2019-03-28T21:01:56.885Z,19.63
2019-03-28T21:04:31.186Z,21.50
2019-03-28T21:06:52.735Z,20.13
2019-03-28T21:09:19.258Z,21.00
2019-03-28T21:11:48.808Z,20.50
2019-03-28T21:14:14.788Z,20.50
2019-03-28T21:16:41.269Z,20.47
2019-03-28T21:19:08.210Z,21.30
2019-03-28T21:21:34.772Z,20.00
2019-03-28T21:24:01.672Z,21.50
2019-03-28T21:26:28.181Z,20.27
2019-03-28T21:28:54.715Z,20.97
2019-03-28T21:31:21.282Z,22.13
2019-03-28T21:33:48.345Z,23.43
2019-03-28T21:36:28.657Z,22.20
2019-03-28T21:38:43.325Z,22.00
2019-03-28T21:41:09.896Z,22.00
2019-03-28T21:43:36.421Z,21.50
2019-03-28T21:46:03.081Z,20.80
2019-03-28T21:48:29.616Z,21.97
2019-03-28T21:50:56.355Z,22.30
2019-03-28T21:53:22.997Z,22.37
2019-03-28T21:55:55.305Z,20.93
2019-03-28T21:58:17.981Z,19.23
2019-03-28T22:00:44.640Z,19.53
2019-03-28T22:03:11.208Z,20.97
2019-03-28T22:05:38.263Z,20.13
2019-03-28T22:08:04.938Z,20.03
2019-03-28T22:10:31.587Z,22.00
2019-03-28T22:12:59.812Z,19.83
2019-03-28T22:15:27.590Z,21.20
2019-03-28T22:17:54.100Z,19.77
2019-03-28T22:20:20.636Z,20.00
2019-03-28T22:22:47.635Z,20.27
2019-03-28T22:25:14.260Z,20.13
2019-03-28T22:27:41.047Z,20.77
2019-03-28T22:30:08.481Z,19.60
2019-03-28T22:32:35.492Z,20.63
2019-03-28T22:35:04.359Z,18.57
2019-03-28T22:37:30.799Z,20.20
2019-03-28T22:39:57.338Z,21.10
2019-03-28T22:42:23.983Z,20.23
2019-03-28T22:44:51.220Z,21.37
2019-03-28T22:47:18.073Z,19.73
2019-03-28T22:49:44.622Z,19.47
2019-03-28T22:52:11.290Z,19.00
2019-03-28T22:54:37.904Z,19.87
2019-03-28T22:57:04.478Z,20.80
2019-03-28T22:59:31.002Z,19.07
2019-03-28T23:01:57.599Z,19.50
2019-03-28T23:04:24.188Z,19.60
2019-03-28T23:06:50.847Z,17.57
2019-03-28T23:09:17.473Z,17.23
2019-03-28T23:11:45.729Z,18.60
2019-03-28T23:14:12.352Z,16.23
2019-03-28T23:16:40.623Z,16.37
2019-03-28T23:19:07.136Z,15.43
2019-03-28T23:21:33.700Z,16.47
2019-03-28T23:24:00.236Z,16.80
2019-03-28T23:26:26.795Z,16.13
2019-03-28T23:28:53.430Z,17.53
2019-03-28T23:31:20.166Z,16.80
2019-03-28T23:33:47.394Z,14.33
2019-03-28T23:36:13.951Z,17.23
2019-03-28T23:38:40.569Z,15.53
2019-03-28T23:41:07.194Z,16.17
2019-03-28T23:43:33.747Z,14.30
2019-03-28T23:46:00.275Z,14.23
2019-03-28T23:48:27.050Z,14.77
2019-03-28T23:50:53.711Z,14.40
2019-03-28T23:53:20.445Z,14.33
2019-03-28T23:55:47.070Z,14.70
2019-03-28T23:58:13.826Z,12.73
